createdAt,value
2019-01-09T00:02:14.167Z,72.92
2019-01-09T00:04:43.279Z,73.04
2019-01-09T00:07:12.435Z,72.83
2019-01-09T00:09:41.551Z,73.05
2019-01-09T00:12:11.320Z,72.65
2019-01-09T00:14:40.480Z,72.57
2019-01-09T00:17:09.653Z,72.86
2019-01-09T00:19:38.810Z,72.70
2019-01-09T00:22:08.034Z,72.54
2019-01-09T00:24:37.437Z,72.75
2019-01-09T00:27:06.504Z,73.20
2019-01-09T00:29:35.787Z,72.87
2019-01-09T00:32:04.910Z,72.84
2019-01-09T00:34:33.991Z,72.50
2019-01-09T00:37:03.130Z,72.55
2019-01-09T00:39:32.939Z,72.30
2019-01-09T00:42:02.343Z,72.33
2019-01-09T00:44:31.483Z,72.36
2019-01-09T00:47:00.696Z,72.12
2019-01-09T00:49:29.839Z,72.29
2019-01-09T00:51:59.034Z,72.02
2019-01-09T00:54:28.543Z,72.14
2019-01-09T00:56:57.790Z,72.02
2019-01-09T00:59:27.398Z,72.04
2019-01-09T01:04:13.690Z,71.97
2019-01-09T01:06:53.673Z,71.77
2019-01-09T01:09:44.473Z,71.77
2019-01-09T01:12:29.082Z,72.00
2019-01-09T01:27:13.777Z,71.41
2019-01-09T01:30:00.588Z,71.60
2019-01-09T01:33:14.314Z,71.56
2019-01-09T01:35:54.841Z,71.44
2019-01-09T01:38:34.521Z,71.70
2019-01-09T01:42:20.429Z,71.67
2019-01-09T01:45:04.553Z,71.51
2019-01-09T01:47:45.143Z,71.84
2019-01-09T01:50:30.503Z,71.73
2019-01-09T01:54:12.113Z,72.07
2019-01-09T01:57:06.903Z,72.04
2019-01-09T01:59:52.795Z,71.92
2019-01-09T02:04:11.253Z,72.05
2019-01-09T02:06:50.891Z,71.89
2019-01-09T02:09:32.672Z,72.12
2019-01-09T02:12:09.788Z,72.30
2019-01-09T02:19:02.459Z,72.52
2019-01-09T02:21:49.238Z,72.46
2019-01-09T02:27:31.489Z,72.91
2019-01-09T02:31:17.293Z,73.00
2019-01-09T02:33:46.549Z,73.13
2019-01-09T02:36:16.624Z,73.62
2019-01-09T02:38:45.818Z,73.85
2019-01-09T02:41:14.908Z,73.91
2019-01-09T02:43:44.255Z,73.70
2019-01-09T02:46:13.378Z,73.59
2019-01-09T02:48:42.484Z,74.11
2019-01-09T02:51:12.224Z,73.87
2019-01-09T02:53:41.456Z,74.10
2019-01-09T02:56:10.581Z,74.10
2019-01-09T02:58:39.753Z,73.86
2019-01-09T03:01:08.846Z,73.84
2019-01-09T03:03:38.050Z,74.15
2019-01-09T03:06:07.147Z,74.33
2019-01-09T03:08:36.297Z,74.10
2019-01-09T03:11:05.716Z,74.01
2019-01-09T03:13:34.852Z,74.27
2019-01-09T03:16:04.141Z,74.15
2019-01-09T03:18:34.112Z,73.97
2019-01-09T03:21:03.216Z,74.18
2019-01-09T03:23:32.895Z,74.35
2019-01-09T03:26:01.987Z,74.63
2019-01-09T03:28:31.062Z,74.53
2019-01-09T03:31:00.154Z,74.46
2019-01-09T03:33:29.305Z,74.13
2019-01-09T03:35:58.580Z,74.01
2019-01-09T03:38:27.706Z,74.41
2019-01-09T03:40:58.593Z,74.50
2019-01-09T03:43:28.673Z,74.29
2019-01-09T03:45:58.636Z,74.34
2019-01-09T03:48:28.296Z,74.16
2019-01-09T03:50:58.324Z,74.66
2019-01-09T03:53:27.598Z,74.70
2019-01-09T03:55:57.477Z,74.24
2019-01-09T03:58:26.743Z,74.67
2019-01-09T04:00:55.835Z,74.68
2019-01-09T04:03:24.889Z,74.88
2019-01-09T04:05:54.444Z,75.03
2019-01-09T04:08:23.594Z,74.88
2019-01-09T04:10:52.813Z,75.03
2019-01-09T04:13:22.080Z,74.91
2019-01-09T04:15:51.166Z,74.82
2019-01-09T04:18:20.259Z,74.84
2019-01-09T04:20:49.407Z,75.09
2019-01-09T04:23:18.496Z,75.51
2019-01-09T04:25:47.600Z,75.38
2019-01-09T04:28:16.686Z,75.71
2019-01-09T04:30:45.803Z,75.46
2019-01-09T04:33:15.085Z,75.69
2019-01-09T04:35:45.009Z,75.41
2019-01-09T04:38:14.167Z,75.25
2019-01-09T04:40:43.305Z,75.40
2019-01-09T04:43:12.402Z,75.00
2019-01-09T04:45:41.667Z,75.46
2019-01-09T04:48:10.744Z,75.55
2019-01-09T04:50:39.826Z,75.60
2019-01-09T04:53:08.959Z,75.24
2019-01-09T04:55:38.189Z,75.63
2019-01-09T04:58:07.306Z,75.29
2019-01-09T05:00:36.452Z,75.38
2019-01-09T05:03:05.751Z,75.31
2019-01-09T05:05:35.675Z,75.62
2019-01-09T05:08:04.914Z,75.10
2019-01-09T05:10:34.212Z,75.15
2019-01-09T05:13:03.311Z,75.53
2019-01-09T05:15:32.403Z,75.67
2019-01-09T05:18:01.464Z,75.82
2019-01-09T05:20:30.837Z,75.59
2019-01-09T05:22:59.914Z,75.49
2019-01-09T05:25:29.620Z,75.50
2019-01-09T05:27:58.828Z,75.49
2019-01-09T05:30:27.999Z,75.58
2019-01-09T05:32:57.174Z,75.50
2019-01-09T05:35:26.300Z,75.29
2019-01-09T05:37:55.024Z,74.91
2019-01-09T05:40:24.092Z,74.69
2019-01-09T05:42:53.141Z,74.88
2019-01-09T05:45:25.266Z,74.59
2019-01-09T05:47:54.355Z,74.45
2019-01-09T05:50:23.548Z,74.62
2019-01-09T05:52:52.719Z,74.27
2019-01-09T05:55:21.950Z,74.07
2019-01-09T05:57:51.041Z,74.32
2019-01-09T06:00:20.241Z,74.18
2019-01-09T06:02:49.322Z,74.02
2019-01-09T06:05:18.600Z,73.83
2019-01-09T06:07:47.694Z,73.77
2019-01-09T06:10:17.033Z,73.65
2019-01-09T06:12:46.374Z,73.50
2019-01-09T06:15:15.548Z,72.95
2019-01-09T06:17:44.711Z,72.77
2019-01-09T06:20:14.532Z,72.66
2019-01-09T06:22:43.844Z,72.20
2019-01-09T06:25:13.022Z,72.24
2019-01-09T06:27:44.798Z,72.09
2019-01-09T06:30:14.093Z,72.37
2019-01-09T06:32:43.225Z,72.32
2019-01-09T06:35:12.505Z,72.38
2019-01-09T06:37:41.621Z,72.34
2019-01-09T06:40:10.820Z,72.28
2019-01-09T06:42:39.899Z,72.48
2019-01-09T06:45:09.191Z,72.12
2019-01-09T06:47:38.399Z,72.17
2019-01-09T06:50:11.649Z,72.18
2019-01-09T06:52:40.828Z,72.72
2019-01-09T06:55:09.956Z,72.30
2019-01-09T06:57:39.075Z,72.35
2019-01-09T07:00:10.324Z,72.35
2019-01-09T07:02:39.620Z,72.26
2019-01-09T07:05:08.699Z,72.17
2019-01-09T07:07:37.782Z,72.41
2019-01-09T07:10:07.302Z,72.48
2019-01-09T07:12:37.744Z,72.45
2019-01-09T07:15:11.626Z,72.51
2019-01-09T07:20:32.651Z,72.34
2019-01-09T07:23:02.810Z,72.46
2019-01-09T07:25:33.593Z,72.47
2019-01-09T07:28:03.274Z,72.22
2019-01-09T07:30:33.787Z,72.33
2019-01-09T07:33:08.261Z,72.40
2019-01-09T07:35:38.427Z,72.44
2019-01-09T07:38:07.541Z,72.65
2019-01-09T07:40:36.709Z,72.43
2019-01-09T07:43:05.929Z,72.74
2019-01-09T07:45:36.539Z,72.57
2019-01-09T07:48:05.681Z,72.91
2019-01-09T07:50:35.020Z,73.15
2019-01-09T07:53:04.868Z,72.80
2019-01-09T07:55:34.005Z,73.12
2019-01-09T07:58:03.085Z,72.99
2019-01-09T08:00:32.243Z,73.07
2019-01-09T08:03:01.564Z,73.14
2019-01-09T08:05:30.640Z,73.12
2019-01-09T08:08:00.261Z,73.29
2019-01-09T08:10:30.118Z,73.40
2019-01-09T08:13:00.731Z,73.52
2019-01-09T08:15:29.953Z,73.34
2019-01-09T08:17:59.173Z,73.51
2019-01-09T08:20:28.265Z,73.34
2019-01-09T08:22:57.367Z,73.35
2019-01-09T08:25:27.414Z,73.66
2019-01-09T08:27:57.083Z,73.78
2019-01-09T08:30:26.351Z,73.87
2019-01-09T08:32:58.006Z,73.89
2019-01-09T08:35:27.369Z,73.96
2019-01-09T08:38:02.633Z,74.03
2019-01-09T08:40:27.226Z,74.07
2019-01-09T08:42:57.763Z,73.96
2019-01-09T08:45:27.695Z,74.53
2019-01-09T08:47:58.823Z,74.16
2019-01-09T08:50:28.068Z,74.08
2019-01-09T08:52:57.726Z,74.11
2019-01-09T08:55:26.842Z,74.07
2019-01-09T08:57:56.021Z,74.33
2019-01-09T09:00:25.423Z,74.08
2019-01-09T09:02:55.112Z,74.08
2019-01-09T09:05:24.786Z,74.35
2019-01-09T09:08:00.247Z,74.53
2019-01-09T09:10:29.372Z,74.21
2019-01-09T09:12:58.708Z,74.29
2019-01-09T09:15:29.079Z,74.53
2019-01-09T09:17:58.313Z,74.48
2019-01-09T09:20:27.523Z,74.16
2019-01-09T09:22:56.763Z,74.22
2019-01-09T09:25:26.639Z,74.29
2019-01-09T09:27:55.915Z,74.49
2019-01-09T09:30:25.169Z,74.13
2019-01-09T09:32:54.312Z,74.40
2019-01-09T09:35:23.773Z,74.58
2019-01-09T09:37:54.579Z,74.40
2019-01-09T09:40:24.187Z,74.66
2019-01-09T09:42:53.405Z,74.36
2019-01-09T09:45:22.886Z,74.70
2019-01-09T09:47:52.455Z,74.54
2019-01-09T09:50:22.224Z,74.52
2019-01-09T09:52:51.360Z,74.35
2019-01-09T09:55:20.558Z,74.52
2019-01-09T09:57:50.055Z,74.11
2019-01-09T10:00:22.322Z,73.99
2019-01-09T10:02:52.005Z,74.10
2019-01-09T10:05:21.470Z,74.02
2019-01-09T10:07:50.894Z,74.02
2019-01-09T10:10:20.209Z,74.34
2019-01-09T10:12:50.543Z,74.16
2019-01-09T10:15:20.259Z,74.33
2019-01-09T10:17:49.509Z,73.96
2019-01-09T10:20:18.925Z,74.07
2019-01-09T10:22:49.017Z,73.97
2019-01-09T10:25:18.314Z,74.06
2019-01-09T10:27:47.604Z,74.07
2019-01-09T10:30:18.353Z,73.79
2019-01-09T10:32:47.681Z,73.89
2019-01-09T10:35:16.977Z,73.91
2019-01-09T10:37:47.410Z,73.85
2019-01-09T10:40:18.011Z,73.76
2019-01-09T10:42:47.359Z,73.42
2019-01-09T10:45:18.765Z,73.64
2019-01-09T10:47:48.170Z,73.25
2019-01-09T10:50:17.556Z,72.62
2019-01-09T10:52:46.889Z,72.41
2019-01-09T10:55:16.841Z,71.43
2019-01-09T10:57:46.070Z,71.24
2019-01-09T11:00:21.100Z,71.14
2019-01-09T11:02:50.400Z,70.79
2019-01-09T11:05:19.801Z,70.28
2019-01-09T11:07:49.003Z,69.85
2019-01-09T11:10:18.790Z,69.29
2019-01-09T11:12:48.947Z,68.99
2019-01-09T11:15:18.163Z,68.82
2019-01-09T11:17:47.315Z,68.59
2019-01-09T11:20:23.793Z,68.51
2019-01-09T11:22:54.612Z,68.05
2019-01-09T11:25:27.205Z,68.06
2019-01-09T11:27:56.419Z,67.87
2019-01-09T11:30:25.555Z,67.66
2019-01-09T11:32:56.221Z,67.70
2019-01-09T11:35:26.325Z,67.76
2019-01-09T11:37:55.859Z,67.36
2019-01-09T11:40:25.335Z,67.33
2019-01-09T11:42:55.418Z,67.12
2019-01-09T11:45:24.776Z,66.98
2019-01-09T11:47:55.055Z,66.53
2019-01-09T11:50:24.854Z,66.59
2019-01-09T11:52:54.836Z,66.49
2019-01-09T11:55:23.999Z,66.36
2019-01-09T11:57:53.785Z,66.42
2019-01-09T12:00:25.801Z,66.46
2019-01-09T12:02:55.101Z,66.20
2019-01-09T12:05:24.503Z,65.94
2019-01-09T12:07:55.312Z,65.76
2019-01-09T12:10:30.231Z,65.56
2019-01-09T12:12:54.993Z,65.11
2019-01-09T12:15:24.319Z,64.84
2019-01-09T12:17:53.517Z,64.73
2019-01-09T12:20:22.747Z,64.45
2019-01-09T12:22:51.911Z,64.33
2019-01-09T12:25:21.220Z,64.26
2019-01-09T12:27:50.541Z,64.17
2019-01-09T12:30:22.537Z,64.03
2019-01-09T12:32:52.697Z,64.17
2019-01-09T12:35:22.080Z,64.21
2019-01-09T12:37:51.231Z,64.30
2019-01-09T12:40:20.528Z,64.17
2019-01-09T12:42:49.825Z,63.89
2019-01-09T12:45:19.615Z,63.56
2019-01-09T12:47:49.046Z,63.16
2019-01-09T12:50:21.847Z,63.13
2019-01-09T12:52:52.652Z,63.21
2019-01-09T12:55:21.172Z,63.21
2019-01-09T12:57:50.409Z,62.95
2019-01-09T13:00:23.957Z,63.24
2019-01-09T13:02:53.819Z,63.13
2019-01-09T13:05:23.414Z,62.87
2019-01-09T13:07:52.929Z,62.66
2019-01-09T13:10:22.229Z,62.73
2019-01-09T13:12:52.847Z,62.75
2019-01-09T13:15:22.141Z,62.78
2019-01-09T13:17:51.277Z,63.03
2019-01-09T13:20:20.693Z,62.71
2019-01-09T13:22:50.816Z,62.85
2019-01-09T13:25:20.665Z,62.83
2019-01-09T13:27:51.193Z,62.81
2019-01-09T13:30:22.735Z,62.79
2019-01-09T13:32:55.729Z,63.10
2019-01-09T13:35:24.902Z,62.79
2019-01-09T13:37:54.487Z,62.83
2019-01-09T13:40:24.082Z,62.92
2019-01-09T13:42:54.237Z,63.28
2019-01-09T13:45:23.707Z,63.25
2019-01-09T13:47:53.007Z,63.31
2019-01-09T13:50:22.331Z,63.38
2019-01-09T13:52:51.563Z,63.32
2019-01-09T13:55:21.206Z,63.38
2019-01-09T13:57:50.458Z,63.49
2019-01-09T14:00:22.284Z,63.03
2019-01-09T14:02:51.769Z,62.84
2019-01-09T14:05:20.949Z,63.11
2019-01-09T14:07:50.145Z,62.86
2019-01-09T14:10:22.492Z,62.79
2019-01-09T14:12:51.667Z,62.68
2019-01-09T14:15:21.709Z,62.48
2019-01-09T14:17:51.271Z,62.60
2019-01-09T14:20:20.461Z,62.03
2019-01-09T14:22:49.823Z,62.11
2019-01-09T14:25:19.824Z,62.17
2019-01-09T14:27:49.203Z,62.03
2019-01-09T14:30:22.805Z,62.07
2019-01-09T14:35:25.490Z,62.12
2019-01-09T14:37:54.644Z,62.17
2019-01-09T14:40:24.450Z,61.82
2019-01-09T14:42:55.689Z,61.68
2019-01-09T14:45:25.269Z,61.68
2019-01-09T14:47:54.620Z,61.64
2019-01-09T14:50:24.934Z,61.15
2019-01-09T14:52:54.148Z,61.03
2019-01-09T14:55:27.175Z,61.01
2019-01-09T14:57:56.334Z,60.70
2019-01-09T15:00:27.524Z,60.85
2019-01-09T15:02:56.896Z,60.86
2019-01-09T15:05:26.817Z,60.80
2019-01-09T15:07:56.487Z,60.96
2019-01-09T15:10:28.418Z,61.00
2019-01-09T15:12:58.860Z,60.58
2019-01-09T15:15:28.372Z,60.73
2019-01-09T15:17:57.555Z,60.70
2019-01-09T15:20:28.871Z,60.58
2019-01-09T15:22:58.665Z,60.68
2019-01-09T15:25:29.107Z,60.98
2019-01-09T15:28:06.135Z,61.16
2019-01-09T15:30:35.813Z,61.32
2019-01-09T15:33:06.334Z,61.37
2019-01-09T15:35:35.521Z,61.43
2019-01-09T15:38:23.826Z,61.73
2019-01-09T15:40:53.007Z,61.86
2019-01-09T15:43:22.222Z,62.04
2019-01-09T15:45:52.431Z,62.18
2019-01-09T15:48:21.560Z,62.17
2019-01-09T15:50:52.001Z,62.12
2019-01-09T15:53:22.489Z,62.36
2019-01-09T15:55:51.793Z,62.62
2019-01-09T15:58:21.221Z,62.80
2019-01-09T16:00:53.529Z,62.90
2019-01-09T16:03:22.967Z,62.61
2019-01-09T16:05:53.390Z,63.05
2019-01-09T16:08:23.515Z,63.27
2019-01-09T16:10:52.728Z,63.05
2019-01-09T16:13:21.829Z,63.57
2019-01-09T16:15:51.648Z,63.59
2019-01-09T16:18:20.755Z,63.74
2019-01-09T16:20:50.338Z,64.00
2019-01-09T16:23:26.301Z,63.82
2019-01-09T16:25:55.681Z,64.19
2019-01-09T16:28:24.810Z,64.18
2019-01-09T16:31:11.916Z,64.26
2019-01-09T16:33:41.334Z,64.57
2019-01-09T16:36:10.762Z,64.49
2019-01-09T16:38:40.130Z,64.87
2019-01-09T16:41:09.328Z,64.75
2019-01-09T16:43:38.360Z,65.00
2019-01-09T16:46:08.247Z,65.11
2019-01-09T16:48:39.595Z,65.13
2019-01-09T16:51:06.746Z,65.33
2019-01-09T16:53:36.077Z,65.50
2019-01-09T16:56:05.801Z,65.61
2019-01-09T16:58:34.891Z,65.64
2019-01-09T17:01:05.436Z,65.99
2019-01-09T17:03:46.494Z,66.08
2019-01-09T17:06:15.700Z,66.31
2019-01-09T17:08:45.521Z,66.60
2019-01-09T17:11:15.642Z,66.68
2019-01-09T17:13:45.065Z,66.46
2019-01-09T17:16:14.203Z,66.44
2019-01-09T17:18:43.401Z,66.43
2019-01-09T17:21:12.682Z,66.52
2019-01-09T17:23:41.791Z,67.01
2019-01-09T17:26:11.070Z,67.02
2019-01-09T17:28:40.143Z,66.90
2019-01-09T17:31:09.290Z,66.90
2019-01-09T17:33:38.493Z,66.78
2019-01-09T17:36:08.933Z,67.24
2019-01-09T17:38:38.205Z,67.08
2019-01-09T17:41:07.432Z,67.03
2019-01-09T17:43:36.534Z,67.65
2019-01-09T17:46:05.817Z,67.78
2019-01-09T17:48:37.752Z,67.55
2019-01-09T17:51:06.974Z,67.54
2019-01-09T17:53:38.011Z,67.68
2019-01-09T17:56:07.105Z,67.79
2019-01-09T17:58:36.252Z,67.80
2019-01-09T18:01:05.430Z,67.81
2019-01-09T18:03:35.500Z,67.94
2019-01-09T18:06:05.722Z,67.88
2019-01-09T18:08:34.753Z,67.79
2019-01-09T18:11:03.935Z,67.85
2019-01-09T18:13:32.976Z,68.16
2019-01-09T18:16:02.157Z,68.01
2019-01-09T18:18:31.331Z,68.37
2019-01-09T18:21:00.513Z,68.04
2019-01-09T18:23:29.714Z,68.35
2019-01-09T18:25:58.852Z,68.46
2019-01-09T18:28:28.724Z,68.55
2019-01-09T18:31:12.641Z,68.86
2019-01-09T18:33:53.849Z,68.87
2019-01-09T18:36:39.097Z,68.94
2019-01-09T18:40:22.894Z,69.06
2019-01-09T18:43:03.761Z,69.03
2019-01-09T18:45:42.106Z,68.86
2019-01-09T18:48:24.922Z,69.21
2019-01-09T18:52:09.618Z,69.41
2019-01-09T18:54:39.026Z,69.39
2019-01-09T18:57:08.501Z,69.12
2019-01-09T18:59:37.625Z,69.46
2019-01-09T19:02:06.854Z,69.54
2019-01-09T19:04:36.124Z,69.48
2019-01-09T19:07:09.721Z,69.88
2019-01-09T19:09:39.030Z,69.89
2019-01-09T19:12:08.325Z,70.06
2019-01-09T19:14:37.395Z,69.99
2019-01-09T19:17:06.669Z,70.05
2019-01-09T19:19:36.024Z,70.06
2019-01-09T19:22:06.240Z,70.32
2019-01-09T19:24:35.337Z,70.33
2019-01-09T19:27:05.149Z,70.84
2019-01-09T19:29:34.325Z,70.75
2019-01-09T19:32:04.516Z,70.88
2019-01-09T19:34:33.639Z,70.73
2019-01-09T19:37:02.759Z,70.84
2019-01-09T19:39:31.837Z,70.67
2019-01-09T19:42:04.916Z,71.08
2019-01-09T19:44:34.967Z,71.37
2019-01-09T19:47:04.127Z,71.88
2019-01-09T19:49:33.513Z,71.63
2019-01-09T19:52:02.629Z,71.54
2019-01-09T19:54:31.679Z,72.02
2019-01-09T19:57:01.639Z,71.98
2019-01-09T19:59:31.491Z,72.47
2019-01-09T20:02:00.576Z,72.33
2019-01-09T20:04:29.966Z,72.43
2019-01-09T20:06:59.092Z,72.73
2019-01-09T20:09:28.267Z,72.82
2019-01-09T20:11:57.448Z,72.73
2019-01-09T20:14:29.083Z,73.13
2019-01-09T20:16:56.871Z,73.26
2019-01-09T20:19:25.994Z,73.28
2019-01-09T20:21:55.092Z,73.08
2019-01-09T20:24:24.189Z,72.76
2019-01-09T20:26:53.845Z,73.16
2019-01-09T20:29:23.119Z,73.06
2019-01-09T20:31:52.383Z,72.95
2019-01-09T20:34:21.585Z,73.15
2019-01-09T20:36:50.958Z,73.04
2019-01-09T20:39:20.044Z,72.99
2019-01-09T20:41:51.838Z,73.07
2019-01-09T20:44:20.961Z,72.78
2019-01-09T20:46:50.241Z,73.22
2019-01-09T20:49:24.924Z,72.92
2019-01-09T20:51:54.083Z,73.03
2019-01-09T20:54:23.167Z,73.12
2019-01-09T20:56:53.383Z,73.31
2019-01-09T20:59:22.502Z,73.27
2019-01-09T21:01:51.724Z,72.95
2019-01-09T21:04:20.891Z,73.52
2019-01-09T21:06:56.523Z,72.85
2019-01-09T21:09:29.747Z,73.08
2019-01-09T21:11:58.949Z,73.02
2019-01-09T21:14:33.654Z,73.09
2019-01-09T21:17:02.960Z,73.14
2019-01-09T21:19:37.732Z,73.36
2019-01-09T21:22:15.085Z,73.49
2019-01-09T21:24:43.850Z,73.50
2019-01-09T21:27:13.025Z,73.45
2019-01-09T21:29:42.131Z,73.62
2019-01-09T21:32:11.178Z,73.93
2019-01-09T21:34:40.335Z,74.23
2019-01-09T21:37:09.532Z,73.71
2019-01-09T21:39:38.699Z,73.85
2019-01-09T21:42:07.931Z,74.10
2019-01-09T21:44:37.229Z,74.12
2019-01-09T21:47:07.005Z,74.30
2019-01-09T21:49:36.336Z,73.83
2019-01-09T21:52:06.255Z,73.83
2019-01-09T21:54:35.348Z,74.18
2019-01-09T21:57:04.771Z,74.32
2019-01-09T21:59:35.284Z,74.52
2019-01-09T22:02:04.482Z,74.71
2019-01-09T22:04:33.571Z,74.18
2019-01-09T22:07:02.880Z,74.40
2019-01-09T22:09:32.099Z,74.13
2019-01-09T22:12:02.655Z,74.57
2019-01-09T22:14:30.409Z,75.06
2019-01-09T22:16:59.978Z,74.76
2019-01-09T22:19:30.003Z,75.10
2019-01-09T22:21:59.075Z,74.75
2019-01-09T22:24:28.143Z,75.20
2019-01-09T22:26:57.363Z,74.98
2019-01-09T22:29:26.458Z,74.76
2019-01-09T22:31:55.661Z,75.10
2019-01-09T22:34:24.906Z,75.08
2019-01-09T22:36:53.954Z,74.92
2019-01-09T22:39:23.162Z,74.94
2019-01-09T22:41:52.454Z,74.28
2019-01-09T22:44:21.525Z,74.75
2019-01-09T22:46:50.740Z,74.58
2019-01-09T22:49:19.838Z,74.89
2019-01-09T22:51:49.035Z,74.59
2019-01-09T22:54:18.142Z,74.69
2019-01-09T22:56:47.235Z,74.43
2019-01-09T22:59:17.446Z,74.28
2019-01-09T23:01:46.544Z,74.28
2019-01-09T23:04:15.867Z,74.44
2019-01-09T23:06:45.035Z,74.25
2019-01-09T23:09:16.035Z,74.66
2019-01-09T23:11:48.805Z,74.34
2019-01-09T23:14:19.120Z,74.14
2019-01-09T23:16:48.305Z,74.52
2019-01-09T23:19:19.739Z,74.29
2019-01-09T23:21:49.730Z,74.09
2019-01-09T23:24:19.114Z,74.62
2019-01-09T23:26:48.228Z,74.43
2019-01-09T23:29:17.264Z,74.02
2019-01-09T23:31:46.356Z,74.38
2019-01-09T23:34:15.467Z,74.57
2019-01-09T23:36:44.507Z,75.05
2019-01-09T23:39:13.527Z,75.49
2019-01-09T23:41:42.618Z,75.00
2019-01-09T23:44:11.752Z,75.37
2019-01-09T23:46:40.893Z,74.93
2019-01-09T23:49:10.020Z,75.23
2019-01-09T23:51:39.221Z,75.46
2019-01-09T23:54:08.297Z,75.15
2019-01-09T23:56:37.391Z,75.12
2019-01-09T23:59:06.472Z,75.39
